createdAt,value
2023-03-02T00:01:46.565Z,17.83
2023-03-02T00:04:18.867Z,17.33
2023-03-02T00:06:46.561Z,13.43
2023-03-02T00:09:15.711Z,16.10
2023-03-02T00:11:43.380Z,15.50
2023-03-02T00:14:11.032Z,16.60
2023-03-02T00:16:40.144Z,15.40
2023-03-02T00:19:07.821Z,15.37
2023-03-02T00:21:36.783Z,15.13
2023-03-02T00:24:04.743Z,16.53
2023-03-02T00:26:34.388Z,11.93
2023-03-02T00:29:02.450Z,14.70
2023-03-02T00:31:30.346Z,14.10
2023-03-02T00:33:58.083Z,12.70
2023-03-02T00:36:25.938Z,13.93
2023-03-02T00:38:55.039Z,12.30
2023-03-02T00:41:22.798Z,12.53
2023-03-02T00:43:51.162Z,10.43
2023-03-02T00:46:20.726Z,13.83
2023-03-02T00:48:50.003Z,12.03
2023-03-02T00:51:18.567Z,13.87
2023-03-02T00:53:46.260Z,13.63
2023-03-02T00:56:15.344Z,16.17
2023-03-02T00:58:43.013Z,13.77
2023-03-02T01:01:12.680Z,14.13
2023-03-02T01:03:40.492Z,15.00
2023-03-02T01:06:16.061Z,14.80
2023-03-02T01:08:43.976Z,15.67
2023-03-02T01:11:18.253Z,13.87
2023-03-02T01:13:48.756Z,14.37
2023-03-02T01:16:19.026Z,13.80
2023-03-02T01:18:46.833Z,14.53
2023-03-02T01:21:16.467Z,13.50
2023-03-02T01:23:45.049Z,13.33
2023-03-02T01:26:12.672Z,10.40
2023-03-02T01:28:41.749Z,13.70
2023-03-02T01:31:09.443Z,15.03
2023-03-02T01:33:37.302Z,16.73
2023-03-02T01:36:05.599Z,14.10
2023-03-02T01:38:34.760Z,17.80
2023-03-02T01:41:02.530Z,14.67
2023-03-02T01:43:30.538Z,11.97
2023-03-02T01:46:02.539Z,11.93
2023-03-02T01:48:33.559Z,13.40
2023-03-02T01:51:02.740Z,16.67
2023-03-02T01:53:35.728Z,20.73
2023-03-02T01:56:05.574Z,15.30
2023-03-02T01:58:37.461Z,15.40
2023-03-02T02:01:15.169Z,16.93
2023-03-02T02:03:44.247Z,18.63
2023-03-02T02:06:17.991Z,15.50
2023-03-02T02:08:46.507Z,13.00
2023-03-02T02:11:14.670Z,15.03
2023-03-02T02:13:43.169Z,16.30
2023-03-02T02:16:12.516Z,13.57
2023-03-02T02:18:41.911Z,12.70
2023-03-02T02:21:09.835Z,12.57
2023-03-02T02:23:44.249Z,13.67
2023-03-02T02:26:20.521Z,12.87
2023-03-02T02:28:57.645Z,15.30
2023-03-02T02:31:31.598Z,15.23
2023-03-02T02:34:04.972Z,14.87
2023-03-02T02:36:38.812Z,17.40
2023-03-02T02:39:09.397Z,17.50
2023-03-02T02:41:42.002Z,18.57
2023-03-02T02:44:14.579Z,14.87
2023-03-02T02:46:42.571Z,16.73
2023-03-02T02:49:22.260Z,20.00
2023-03-02T02:51:50.062Z,17.67
2023-03-02T02:54:20.315Z,17.83
2023-03-02T02:56:51.023Z,19.87
2023-03-02T02:59:21.982Z,19.23
2023-03-02T03:01:50.577Z,17.43
2023-03-02T03:04:21.347Z,22.50
2023-03-02T03:06:53.976Z,28.40
2023-03-02T03:09:22.625Z,19.70
2023-03-02T03:11:53.600Z,22.50
2023-03-02T03:14:25.705Z,25.57
2023-03-02T03:16:53.459Z,22.00
2023-03-02T03:19:23.778Z,20.87
2023-03-02T03:21:53.571Z,25.87
2023-03-02T03:24:21.507Z,22.93
2023-03-02T03:26:50.999Z,26.50
2023-03-02T03:29:19.480Z,23.03
2023-03-02T03:31:47.147Z,29.67
2023-03-02T03:34:15.215Z,24.47
2023-03-02T03:36:43.531Z,29.80
2023-03-02T03:39:12.032Z,29.07
2023-03-02T03:41:39.861Z,28.87
2023-03-02T03:44:09.428Z,33.40
2023-03-02T03:46:37.478Z,31.50
2023-03-02T03:49:05.866Z,31.23
2023-03-02T03:51:35.147Z,38.27
2023-03-02T03:54:03.894Z,34.83
2023-03-02T03:56:34.579Z,28.10
2023-03-02T03:59:07.238Z,22.80
2023-03-02T04:01:38.210Z,28.93
2023-03-02T04:04:09.181Z,24.87
2023-03-02T04:06:37.320Z,34.23
2023-03-02T04:09:06.311Z,25.33
2023-03-02T04:11:35.001Z,29.93
2023-03-02T04:14:03.549Z,32.20
2023-03-02T04:16:32.347Z,27.47
2023-03-02T04:19:02.369Z,29.83
2023-03-02T04:21:30.520Z,32.37
2023-03-02T04:23:58.294Z,28.00
2023-03-02T04:26:26.885Z,28.10
2023-03-02T04:28:54.520Z,34.80
2023-03-02T04:31:22.232Z,30.03
2023-03-02T04:33:50.020Z,25.53
2023-03-02T04:36:19.575Z,27.20
2023-03-02T04:38:47.591Z,25.00
2023-03-02T04:41:15.718Z,32.80
2023-03-02T04:43:44.826Z,25.07
2023-03-02T04:46:24.716Z,30.40
2023-03-02T04:48:52.439Z,26.17
2023-03-02T04:51:24.249Z,28.43
2023-03-02T04:53:52.238Z,24.20
2023-03-02T04:56:20.452Z,30.17
2023-03-02T04:58:50.496Z,31.53
2023-03-02T05:01:20.085Z,27.73
2023-03-02T05:03:48.743Z,34.10
2023-03-02T05:06:16.573Z,28.33
2023-03-02T05:08:45.704Z,29.70
2023-03-02T05:11:21.903Z,30.30
2023-03-02T05:13:49.910Z,29.97
2023-03-02T05:16:17.659Z,30.43
2023-03-02T05:18:45.522Z,31.03
2023-03-02T05:21:14.273Z,32.47
2023-03-02T05:23:42.192Z,29.87
2023-03-02T05:26:11.227Z,25.53
2023-03-02T05:28:39.478Z,32.53
2023-03-02T05:31:07.910Z,27.90
2023-03-02T05:33:36.052Z,29.30
2023-03-02T05:36:03.949Z,25.60
2023-03-02T05:38:32.401Z,26.83
2023-03-02T05:41:00.032Z,29.57
2023-03-02T05:43:28.988Z,28.93
2023-03-02T05:46:00.582Z,24.27
2023-03-02T05:48:28.770Z,31.50
2023-03-02T05:50:57.049Z,26.97
2023-03-02T05:53:24.776Z,26.60
2023-03-02T05:55:53.253Z,27.13
2023-03-02T05:58:21.555Z,26.00
2023-03-02T06:00:50.891Z,26.43
2023-03-02T06:03:18.816Z,29.07
2023-03-02T06:05:50.631Z,29.00
2023-03-02T06:08:18.992Z,22.70
2023-03-02T06:10:47.147Z,23.40
2023-03-02T06:13:16.932Z,28.37
2023-03-02T06:15:46.732Z,26.23
2023-03-02T06:18:15.792Z,29.67
2023-03-02T06:20:44.013Z,24.00
2023-03-02T06:23:11.966Z,27.93
2023-03-02T06:25:43.639Z,26.03
2023-03-02T06:28:11.710Z,23.63
2023-03-02T06:30:39.397Z,25.57
2023-03-02T06:33:07.104Z,26.50
2023-03-02T06:35:36.170Z,26.37
2023-03-02T06:38:03.991Z,28.23
2023-03-02T06:40:32.091Z,24.97
2023-03-02T06:43:03.841Z,29.77
2023-03-02T06:45:33.694Z,30.20
2023-03-02T06:48:01.894Z,25.23
2023-03-02T06:50:29.749Z,25.00
2023-03-02T06:52:58.725Z,21.17
2023-03-02T06:55:26.508Z,24.33
2023-03-02T06:57:54.754Z,29.10
2023-03-02T07:00:27.909Z,24.97
2023-03-02T07:02:56.663Z,22.53
2023-03-02T07:05:24.835Z,23.73
2023-03-02T07:07:53.202Z,27.67
2023-03-02T07:10:22.308Z,26.80
2023-03-02T07:12:49.974Z,25.77
2023-03-02T07:15:17.856Z,23.27
2023-03-02T07:17:46.062Z,25.70
2023-03-02T07:20:15.982Z,22.77
2023-03-02T07:22:45.581Z,22.17
2023-03-02T07:25:14.641Z,26.17
2023-03-02T07:27:43.930Z,20.53
2023-03-02T07:30:14.804Z,28.87
2023-03-02T07:32:42.876Z,21.70
2023-03-02T07:35:11.436Z,23.67
2023-03-02T07:37:39.723Z,23.53
2023-03-02T07:40:08.879Z,25.53
2023-03-02T07:42:36.620Z,28.40
2023-03-02T07:45:06.788Z,21.37
2023-03-02T07:47:34.688Z,29.27
2023-03-02T07:50:02.432Z,30.93
2023-03-02T07:52:30.588Z,32.53
2023-03-02T07:54:58.678Z,29.27
2023-03-02T07:57:26.353Z,30.27
2023-03-02T07:59:54.102Z,24.03
2023-03-02T08:02:30.766Z,26.23
2023-03-02T08:04:58.785Z,25.40
2023-03-02T08:07:26.402Z,26.90
2023-03-02T08:09:54.047Z,21.60
2023-03-02T08:12:21.811Z,26.13
2023-03-02T08:14:49.529Z,26.83
2023-03-02T08:17:17.198Z,26.87
2023-03-02T08:19:46.653Z,24.17
2023-03-02T08:22:14.280Z,25.53
2023-03-02T08:24:42.871Z,23.90
2023-03-02T08:27:13.925Z,25.80
2023-03-02T08:29:41.847Z,23.73
2023-03-02T08:32:09.717Z,26.43
2023-03-02T08:34:37.639Z,19.20
2023-03-02T08:37:06.732Z,24.67
2023-03-02T08:39:34.661Z,22.87
2023-03-02T08:42:02.308Z,23.30
2023-03-02T08:44:30.224Z,23.77
2023-03-02T08:46:57.862Z,20.97
2023-03-02T08:49:25.492Z,21.97
2023-03-02T08:51:56.330Z,23.93
2023-03-02T08:54:25.441Z,23.57
2023-03-02T08:56:53.238Z,22.73
2023-03-02T08:59:21.714Z,25.17
2023-03-02T09:01:49.909Z,24.67
2023-03-02T09:04:17.751Z,23.83
2023-03-02T09:06:46.267Z,23.10
2023-03-02T09:09:15.523Z,23.90
2023-03-02T09:11:44.824Z,20.80
2023-03-02T09:14:12.986Z,28.50
2023-03-02T09:16:40.776Z,26.43
2023-03-02T09:19:08.586Z,25.43
2023-03-02T09:21:36.348Z,22.03
2023-03-02T09:24:03.989Z,23.80
2023-03-02T09:26:31.693Z,27.60
2023-03-02T09:29:00.718Z,21.80
2023-03-02T09:31:30.236Z,21.27
2023-03-02T09:33:58.354Z,22.87
2023-03-02T09:36:27.159Z,22.37
2023-03-02T09:38:55.212Z,24.43
2023-03-02T09:42:06.755Z,21.17
2023-03-02T09:44:54.156Z,26.57
2023-03-02T09:47:35.484Z,24.17
2023-03-02T09:50:17.428Z,23.87
2023-03-02T09:52:53.574Z,20.50
2023-03-02T09:55:25.192Z,22.60
2023-03-02T09:57:54.935Z,21.57
2023-03-02T10:00:29.079Z,19.83
2023-03-02T10:03:11.354Z,24.10
2023-03-02T10:05:46.520Z,27.93
2023-03-02T10:08:16.531Z,29.73
2023-03-02T10:10:46.726Z,22.83
2023-03-02T10:13:23.108Z,19.83
2023-03-02T10:16:04.257Z,20.87
2023-03-02T10:18:37.984Z,25.20
2023-03-02T10:21:12.191Z,20.80
2023-03-02T10:23:50.345Z,22.60
2023-03-02T10:26:26.720Z,19.93
2023-03-02T10:29:01.117Z,29.47
2023-03-02T10:31:32.070Z,25.23
2023-03-02T10:34:00.691Z,25.53
2023-03-02T10:36:30.750Z,28.07
2023-03-02T10:39:00.887Z,20.83
2023-03-02T10:41:35.359Z,20.30
2023-03-02T10:44:07.158Z,23.10
2023-03-02T10:46:43.942Z,23.30
2023-03-02T10:49:29.625Z,20.57
2023-03-02T10:52:03.100Z,26.73
2023-03-02T10:54:34.652Z,24.07
2023-03-02T10:57:04.425Z,26.87
2023-03-02T10:59:40.794Z,23.47
2023-03-02T11:02:23.128Z,22.13
2023-03-02T11:04:57.427Z,25.73
2023-03-02T11:07:27.675Z,20.97
2023-03-02T11:10:01.951Z,22.37
2023-03-02T11:12:33.189Z,21.67
2023-03-02T11:15:19.781Z,28.10
2023-03-02T11:17:51.674Z,29.77
2023-03-02T11:20:24.939Z,24.17
2023-03-02T11:23:01.896Z,22.30
2023-03-02T11:25:33.556Z,27.63
2023-03-02T11:28:06.582Z,25.83
2023-03-02T11:30:42.454Z,24.77
2023-03-02T11:33:18.476Z,29.23
2023-03-02T11:35:51.989Z,23.57
2023-03-02T11:38:25.464Z,26.30
2023-03-02T11:40:59.568Z,31.53
2023-03-02T11:43:27.724Z,26.90
2023-03-02T11:46:00.236Z,29.03
2023-03-02T11:48:34.215Z,26.97
2023-03-02T11:51:03.829Z,29.87
2023-03-02T11:53:40.504Z,25.27
2023-03-02T11:56:09.562Z,31.97
2023-03-02T11:58:38.500Z,31.60
2023-03-02T12:01:10.962Z,25.70
2023-03-02T12:03:45.587Z,29.70
2023-03-02T12:06:28.716Z,29.07
2023-03-02T12:09:10.970Z,30.87
2023-03-02T12:11:41.174Z,30.77
2023-03-02T12:14:28.432Z,27.20
2023-03-02T12:17:06.605Z,29.90
2023-03-02T12:19:45.106Z,30.80
2023-03-02T12:22:15.193Z,33.00
2023-03-02T12:24:46.513Z,26.27
2023-03-02T12:27:27.591Z,34.70
2023-03-02T12:29:58.394Z,29.17
2023-03-02T12:32:30.942Z,30.87
2023-03-02T12:35:03.870Z,35.43
2023-03-02T12:37:34.240Z,29.17
2023-03-02T12:40:25.402Z,38.00
2023-03-02T12:43:11.858Z,30.27
2023-03-02T12:45:49.588Z,31.53
2023-03-02T12:48:26.213Z,33.00
2023-03-02T12:50:59.695Z,28.23
2023-03-02T12:53:27.381Z,34.83
2023-03-02T12:55:55.052Z,37.10
2023-03-02T12:58:25.001Z,27.00
2023-03-02T13:00:54.983Z,29.27
2023-03-02T13:03:23.440Z,29.83
2023-03-02T13:05:51.353Z,29.43
2023-03-02T13:08:24.167Z,30.23
2023-03-02T13:10:54.237Z,29.40
2023-03-02T13:13:24.858Z,28.97
2023-03-02T13:15:56.012Z,34.87
2023-03-02T13:18:26.044Z,30.53
2023-03-02T13:20:54.423Z,27.47
2023-03-02T13:23:23.608Z,29.73
2023-03-02T13:25:52.941Z,29.63
2023-03-02T13:28:28.415Z,32.60
2023-03-02T13:31:01.087Z,29.53
2023-03-02T13:33:32.455Z,28.37
2023-03-02T13:36:01.108Z,30.60
2023-03-02T13:38:33.727Z,27.10
2023-03-02T13:41:02.097Z,28.30
2023-03-02T13:43:37.900Z,24.50
2023-03-02T13:46:08.365Z,30.60
2023-03-02T13:48:36.208Z,25.93
2023-03-02T13:51:15.048Z,29.57
2023-03-02T13:53:56.823Z,32.47
2023-03-02T13:56:29.138Z,35.10
2023-03-02T13:58:57.275Z,31.87
2023-03-02T14:01:25.047Z,26.57
2023-03-02T14:03:52.913Z,26.10
2023-03-02T14:06:20.542Z,27.70
2023-03-02T14:08:50.505Z,28.00
2023-03-02T14:11:19.603Z,25.97
2023-03-02T14:13:52.051Z,24.80
2023-03-02T14:16:19.815Z,25.77
2023-03-02T14:18:50.130Z,26.60
2023-03-02T14:21:19.926Z,22.47
2023-03-02T14:23:49.348Z,25.67
2023-03-02T14:26:27.939Z,22.50
2023-03-02T14:29:05.007Z,24.83
2023-03-02T14:31:33.492Z,24.27
2023-03-02T14:34:01.407Z,25.20
2023-03-02T14:36:31.860Z,24.20
2023-03-02T14:39:04.038Z,25.53
2023-03-02T14:41:38.340Z,24.07
2023-03-02T14:44:11.652Z,25.20
2023-03-02T14:46:39.428Z,29.97
2023-03-02T14:49:07.314Z,26.80
2023-03-02T14:51:37.293Z,26.10
2023-03-02T14:54:09.381Z,29.87
2023-03-02T14:56:38.133Z,25.47
2023-03-02T14:59:05.871Z,30.50
2023-03-02T15:01:33.812Z,31.97
2023-03-02T15:04:01.673Z,33.27
2023-03-02T15:06:32.448Z,24.37
2023-03-02T15:09:01.493Z,32.77
2023-03-02T15:11:31.145Z,29.07
2023-03-02T15:14:00.439Z,31.30
2023-03-02T15:16:28.178Z,23.03
2023-03-02T15:18:58.701Z,37.10
2023-03-02T15:21:26.587Z,30.10
2023-03-02T15:23:54.335Z,27.57
2023-03-02T15:26:22.162Z,25.57
2023-03-02T15:28:52.433Z,28.87
2023-03-02T15:31:21.158Z,26.17
2023-03-02T15:33:51.255Z,31.07
2023-03-02T15:36:19.099Z,31.20
2023-03-02T15:38:50.451Z,27.47
2023-03-02T15:41:20.135Z,28.93
2023-03-02T15:43:52.265Z,27.97
2023-03-02T15:46:20.373Z,27.60
2023-03-02T15:48:48.024Z,27.53
2023-03-02T15:51:16.692Z,26.97
2023-03-02T15:53:44.533Z,27.83
2023-03-02T15:56:16.010Z,25.70
2023-03-02T15:58:47.657Z,30.70
2023-03-02T16:01:17.100Z,28.87
2023-03-02T16:03:46.224Z,29.57
2023-03-02T16:06:15.736Z,30.13
2023-03-02T16:08:43.559Z,29.83
2023-03-02T16:11:11.995Z,29.17
2023-03-02T16:13:39.685Z,30.50
2023-03-02T16:16:08.043Z,30.23
2023-03-02T16:18:37.162Z,28.43
2023-03-02T16:21:05.168Z,26.23
2023-03-02T16:23:33.664Z,26.63
2023-03-02T16:26:08.312Z,31.00
2023-03-02T16:28:35.994Z,29.47
2023-03-02T16:31:05.434Z,30.60
2023-03-02T16:33:34.297Z,33.73
2023-03-02T16:36:03.519Z,32.63
2023-03-02T16:38:31.578Z,28.83
2023-03-02T16:40:59.453Z,31.87
2023-03-02T16:43:27.626Z,31.60
2023-03-02T16:45:55.845Z,25.17
2023-03-02T16:48:24.141Z,37.00
2023-03-02T16:50:56.552Z,33.10
2023-03-02T16:53:25.619Z,33.03
2023-03-02T16:55:53.339Z,37.13
2023-03-02T16:58:21.888Z,36.70
2023-03-02T17:00:49.898Z,36.33
2023-03-02T17:03:18.346Z,27.90
2023-03-02T17:05:46.202Z,36.93
2023-03-02T17:08:16.063Z,28.70
2023-03-02T17:10:45.615Z,29.57
2023-03-02T17:13:15.476Z,27.60
2023-03-02T17:15:43.940Z,29.30
2023-03-02T17:18:12.219Z,34.20
2023-03-02T17:20:39.966Z,32.23
2023-03-02T17:23:11.756Z,34.27
2023-03-02T17:25:42.116Z,32.53
2023-03-02T17:28:12.588Z,30.93
2023-03-02T17:30:40.480Z,36.63
2023-03-02T17:33:08.648Z,36.73
2023-03-02T17:35:37.006Z,31.13
2023-03-02T17:38:05.645Z,30.10
2023-03-02T17:40:33.444Z,32.67
2023-03-02T17:43:01.728Z,34.33
2023-03-02T17:45:31.116Z,30.00
2023-03-02T17:48:00.003Z,27.43
2023-03-02T17:50:31.002Z,33.77
2023-03-02T17:52:59.647Z,28.77
2023-03-02T17:55:27.579Z,28.73
2023-03-02T17:57:55.433Z,30.30
2023-03-02T18:00:24.590Z,35.07
2023-03-02T18:02:54.395Z,34.40
2023-03-02T18:05:22.356Z,29.20
2023-03-02T18:07:51.869Z,29.13
2023-03-02T18:10:19.656Z,25.97
2023-03-02T18:12:48.436Z,31.87
2023-03-02T18:15:16.172Z,30.00
2023-03-02T18:17:44.296Z,26.00
2023-03-02T18:20:14.317Z,28.63
2023-03-02T18:22:42.105Z,32.10
2023-03-02T18:25:10.301Z,28.87
2023-03-02T18:27:38.131Z,33.20
2023-03-02T18:30:06.855Z,32.43
2023-03-02T18:32:35.318Z,28.53
2023-03-02T18:35:03.174Z,25.97
2023-03-02T18:37:34.301Z,24.30
2023-03-02T18:40:02.675Z,28.60
2023-03-02T18:42:31.324Z,26.57
2023-03-02T18:45:01.435Z,28.37
2023-03-02T18:47:29.315Z,28.47
2023-03-02T18:49:58.659Z,25.93
2023-03-02T18:52:26.423Z,29.73
2023-03-02T18:54:57.744Z,24.43
2023-03-02T18:57:26.294Z,26.90
2023-03-02T18:59:53.944Z,24.77
2023-03-02T19:02:22.642Z,25.03
2023-03-02T19:04:50.408Z,20.77
2023-03-02T19:07:18.651Z,23.83
2023-03-02T19:09:47.381Z,26.00
2023-03-02T19:12:18.385Z,27.53
2023-03-02T19:14:47.791Z,26.83
2023-03-02T19:17:15.490Z,27.93
2023-03-02T19:19:43.859Z,23.10
2023-03-02T19:22:11.667Z,23.67
2023-03-02T19:24:40.386Z,23.77
2023-03-02T19:27:10.310Z,24.17
2023-03-02T19:29:41.349Z,23.90
2023-03-02T19:32:11.089Z,23.00
2023-03-02T19:34:39.345Z,21.70
2023-03-02T19:37:07.126Z,19.73
2023-03-02T19:39:34.900Z,20.63
2023-03-02T19:42:02.588Z,16.80
2023-03-02T19:44:31.720Z,15.40
2023-03-02T19:47:01.169Z,16.33
2023-03-02T19:49:29.177Z,20.07
2023-03-02T19:51:56.960Z,22.40
2023-03-02T19:54:24.649Z,16.87
2023-03-02T19:56:53.967Z,19.47
2023-03-02T19:59:24.373Z,19.43
2023-03-02T20:01:52.792Z,15.50
2023-03-02T20:04:21.876Z,18.00
2023-03-02T20:06:49.582Z,17.50
2023-03-02T20:09:19.728Z,17.53
2023-03-02T20:11:47.647Z,15.40
2023-03-02T20:14:32.632Z,18.50
2023-03-02T20:17:01.649Z,16.07
2023-03-02T20:19:31.040Z,16.40
2023-03-02T20:21:58.886Z,19.60
2023-03-02T20:24:26.590Z,17.40
2023-03-02T20:26:54.356Z,15.40
2023-03-02T20:29:22.195Z,20.77
2023-03-02T20:31:50.194Z,15.30
2023-03-02T20:34:18.048Z,18.17
2023-03-02T20:36:47.208Z,19.53
2023-03-02T20:39:19.014Z,18.70
2023-03-02T20:41:47.017Z,18.07
2023-03-02T20:44:15.206Z,18.80
2023-03-02T20:46:47.824Z,15.80
2023-03-02T20:49:16.865Z,16.00
2023-03-02T20:51:52.786Z,20.10
2023-03-02T20:54:21.981Z,17.27
2023-03-02T20:56:50.350Z,17.97
2023-03-02T20:59:18.277Z,16.70
2023-03-02T21:01:46.074Z,13.80
2023-03-02T21:04:14.247Z,17.40
2023-03-02T21:06:42.637Z,18.53
2023-03-02T21:09:12.019Z,16.67
2023-03-02T21:11:40.612Z,18.87
2023-03-02T21:14:08.367Z,17.90
2023-03-02T21:16:39.284Z,19.30
2023-03-02T21:19:09.252Z,18.10
2023-03-02T21:21:41.792Z,19.43
2023-03-02T21:24:12.754Z,13.33
2023-03-02T21:26:41.478Z,19.23
2023-03-02T21:29:11.619Z,14.80
2023-03-02T21:31:40.465Z,18.43
2023-03-02T21:34:08.189Z,18.90
2023-03-02T21:36:36.181Z,17.87
2023-03-02T21:39:07.610Z,18.47
2023-03-02T21:41:37.451Z,19.90
2023-03-02T21:44:06.335Z,18.83
2023-03-02T21:46:36.195Z,20.40
2023-03-02T21:49:04.698Z,22.90
2023-03-02T21:51:32.999Z,18.13
2023-03-02T21:54:00.700Z,23.33
2023-03-02T21:56:28.565Z,18.70
2023-03-02T21:58:58.406Z,21.60
2023-03-02T22:01:26.756Z,24.73
2023-03-02T22:03:54.664Z,20.67
2023-03-02T22:06:25.888Z,24.03
2023-03-02T22:08:55.591Z,20.93
2023-03-02T22:11:25.329Z,18.70
2023-03-02T22:13:55.422Z,25.33
2023-03-02T22:16:25.882Z,21.63
2023-03-02T22:18:57.268Z,19.43
2023-03-02T22:21:28.941Z,21.57
2023-03-02T22:24:01.788Z,23.93
2023-03-02T22:26:29.589Z,20.17
2023-03-02T22:29:03.192Z,17.53
2023-03-02T22:31:33.941Z,17.87
2023-03-02T22:34:01.752Z,25.17
2023-03-02T22:36:29.862Z,23.27
2023-03-02T22:39:01.988Z,20.77
2023-03-02T22:41:29.806Z,24.67
2023-03-02T22:43:57.668Z,20.07
2023-03-02T22:46:26.868Z,25.93
2023-03-02T22:48:56.607Z,20.27
2023-03-02T22:51:28.874Z,16.30
2023-03-02T22:53:59.618Z,26.10
2023-03-02T22:56:30.917Z,24.07
2023-03-02T22:59:07.655Z,21.10
2023-03-02T23:01:40.105Z,18.20
2023-03-02T23:04:19.097Z,22.23
2023-03-02T23:06:48.701Z,21.53
2023-03-02T23:09:18.564Z,25.87
2023-03-02T23:11:46.339Z,27.70
2023-03-02T23:14:21.828Z,20.07
2023-03-02T23:16:53.889Z,23.37
2023-03-02T23:19:23.220Z,18.97
2023-03-02T23:21:50.950Z,16.77
2023-03-02T23:24:21.991Z,17.63
2023-03-02T23:26:50.971Z,24.93
2023-03-02T23:29:18.960Z,21.03
2023-03-02T23:31:46.969Z,18.87
2023-03-02T23:34:15.694Z,19.63
2023-03-02T23:36:44.692Z,20.17
2023-03-02T23:39:12.419Z,24.87
2023-03-02T23:41:40.334Z,18.10
2023-03-02T23:44:08.576Z,19.33
2023-03-02T23:46:36.339Z,19.73
2023-03-02T23:49:04.095Z,25.13
2023-03-02T23:51:31.812Z,15.47
2023-03-02T23:54:02.356Z,20.17
2023-03-02T23:56:31.858Z,21.07
2023-03-02T23:58:59.478Z,20.60
